createdAt,value
2022-08-17T00:00:42.926Z,99115.28
2022-08-17T00:04:50.338Z,99114.31
2022-08-17T00:08:55.015Z,99107.06
2022-08-17T00:12:56.794Z,99110.22
2022-08-17T00:16:58.947Z,99112.56
2022-08-17T00:21:01.741Z,99112.44
2022-08-17T00:25:09.010Z,99109.16
2022-08-17T00:29:10.689Z,99109.97
2022-08-17T00:33:25.964Z,99108.94
2022-08-17T00:37:27.833Z,99097.22
2022-08-17T00:41:29.786Z,99100.03
2022-08-17T00:45:32.638Z,99105.66
2022-08-17T00:49:34.246Z,99104.97
2022-08-17T00:53:42.193Z,99102.63
2022-08-17T00:57:46.987Z,99097.47
2022-08-17T01:01:50.386Z,99103.91
2022-08-17T01:05:55.983Z,99088.94
2022-08-17T01:10:00.197Z,99080.38
2022-08-17T01:14:01.916Z,99082.00
2022-08-17T01:18:07.895Z,99090.56
2022-08-17T01:22:11.017Z,99085.91
2022-08-17T01:26:12.626Z,99093.84
2022-08-17T01:30:57.376Z,99086.00
2022-08-17T01:34:42.440Z,99084.56
2022-08-17T01:38:45.182Z,99088.06
2022-08-17T01:43:00.967Z,99088.06
2022-08-17T01:47:02.854Z,99085.97
2022-08-17T01:51:07.619Z,99092.59
2022-08-17T01:55:10.220Z,99095.41
2022-08-17T01:59:13.006Z,99087.00
2022-08-17T02:03:17.262Z,99082.88
2022-08-17T02:07:19.321Z,99086.38
2022-08-17T02:11:28.477Z,99085.06
2022-08-17T02:15:32.041Z,99082.47
2022-08-17T02:19:33.619Z,99077.41
2022-08-17T02:23:40.513Z,99070.84
2022-08-17T02:27:42.660Z,99080.44
2022-08-17T02:31:44.347Z,99072.22
2022-08-17T02:35:46.012Z,99077.34
2022-08-17T02:39:47.873Z,99068.13
2022-08-17T02:43:49.494Z,99079.00
2022-08-17T02:47:52.160Z,99068.94
2022-08-17T02:51:53.684Z,99071.06
2022-08-17T02:55:55.266Z,99083.13
2022-08-17T02:59:56.835Z,99086.25
2022-08-17T03:03:59.000Z,99089.53
2022-08-17T03:08:00.723Z,99084.63
2022-08-17T03:12:12.508Z,99087.63
2022-08-17T03:16:14.124Z,99090.19
2022-08-17T03:20:16.304Z,99098.97
2022-08-17T03:24:18.094Z,99102.53
2022-08-17T03:28:20.225Z,99102.44
2022-08-17T03:32:22.239Z,99095.13
2022-08-17T03:36:23.860Z,99105.38
2022-08-17T03:40:36.954Z,99101.16
2022-08-17T03:44:51.509Z,99097.16
2022-08-17T03:49:11.784Z,99085.34
2022-08-17T03:53:36.530Z,99098.88
2022-08-17T03:57:40.867Z,99095.09
2022-08-17T04:01:46.975Z,99099.41
2022-08-17T04:05:48.559Z,99097.63
2022-08-17T04:09:50.356Z,99087.25
2022-08-17T04:13:52.035Z,99081.66
2022-08-17T04:17:53.696Z,99081.16
2022-08-17T04:21:55.304Z,99085.28
2022-08-17T04:25:57.377Z,99087.09
2022-08-17T04:29:59.004Z,99086.25
2022-08-17T04:34:00.593Z,99075.25
2022-08-17T04:38:02.214Z,99078.19
2022-08-17T04:42:17.253Z,99077.69
2022-08-17T04:46:21.378Z,99083.94
2022-08-17T04:50:22.979Z,99088.34
2022-08-17T04:54:25.497Z,99087.03
2022-08-17T04:58:27.341Z,99108.75
2022-08-17T05:02:28.939Z,99116.16
2022-08-17T05:06:30.554Z,99135.41
2022-08-17T05:10:35.679Z,99163.50
2022-08-17T05:14:39.613Z,99164.38
2022-08-17T05:18:41.387Z,99158.59
2022-08-17T05:22:51.574Z,99179.06
2022-08-17T05:26:53.254Z,99174.78
2022-08-17T05:30:59.483Z,99166.19
2022-08-17T05:35:01.052Z,99172.00
2022-08-17T05:39:02.798Z,99165.19
2022-08-17T05:43:12.995Z,99152.19
2022-08-17T05:47:14.620Z,99151.69
2022-08-17T05:51:27.467Z,99146.69
2022-08-17T05:55:35.667Z,99151.44
2022-08-17T06:00:03.309Z,99153.34
2022-08-17T06:04:30.482Z,99159.72
2022-08-17T06:08:51.795Z,99164.94
2022-08-17T06:13:28.051Z,99179.25
2022-08-17T06:17:31.182Z,99183.38
2022-08-17T06:21:42.597Z,99189.75
2022-08-17T06:25:52.240Z,99193.31
2022-08-17T06:30:22.315Z,99187.53
2022-08-17T06:34:24.039Z,99187.94
2022-08-17T06:38:38.501Z,99186.94
2022-08-17T06:43:14.606Z,99191.19
2022-08-17T06:47:41.838Z,99175.41
2022-08-17T06:51:53.661Z,99175.59
2022-08-17T06:56:01.693Z,99192.19
2022-08-17T07:00:07.964Z,99180.63
2022-08-17T07:04:16.956Z,99176.31
2022-08-17T07:08:51.237Z,99183.53
2022-08-17T07:12:59.019Z,99176.06
2022-08-17T07:17:07.056Z,99174.66
2022-08-17T07:21:19.192Z,99192.47
2022-08-17T07:25:23.463Z,99199.81
2022-08-17T07:29:25.205Z,99197.84
2022-08-17T07:33:29.714Z,99211.66
2022-08-17T07:37:33.731Z,99213.06
2022-08-17T07:41:53.151Z,99201.00
2022-08-17T07:46:40.827Z,99196.34
2022-08-17T07:50:42.446Z,99185.22
2022-08-17T07:54:51.121Z,99180.78
2022-08-17T07:59:10.418Z,99186.63
2022-08-17T08:03:27.162Z,99218.25
2022-08-17T08:07:35.990Z,99238.16
2022-08-17T08:11:41.271Z,99233.72
2022-08-17T08:15:53.750Z,99248.19
2022-08-17T08:19:58.879Z,99261.78
2022-08-17T08:24:30.855Z,99255.31
2022-08-17T08:28:47.871Z,99247.94
2022-08-17T08:32:54.951Z,99249.00
2022-08-17T08:37:32.741Z,99238.81
2022-08-17T08:42:00.123Z,99241.44
2022-08-17T08:46:33.288Z,99231.03
2022-08-17T08:50:48.543Z,99241.19
2022-08-17T08:55:28.821Z,99250.09
2022-08-17T08:59:45.156Z,99248.75
2022-08-17T09:04:24.742Z,99243.56
2022-08-17T09:08:45.603Z,99254.41
2022-08-17T09:13:10.135Z,99249.84
2022-08-17T09:17:44.897Z,99273.16
2022-08-17T09:21:54.493Z,99259.81
2022-08-17T09:26:07.175Z,99258.63
2022-08-17T09:30:09.859Z,99244.78
2022-08-17T09:34:17.272Z,99228.75
2022-08-17T09:38:35.246Z,99226.78
2022-08-17T09:42:49.167Z,99259.47
2022-08-17T09:46:56.023Z,99253.16
2022-08-17T09:51:20.101Z,99258.75
2022-08-17T09:55:28.140Z,99272.06
2022-08-17T09:59:41.903Z,99289.91
2022-08-17T10:04:05.603Z,99303.63
2022-08-17T10:08:24.087Z,99285.84
2022-08-17T10:13:05.877Z,99274.69
2022-08-17T10:17:26.332Z,99289.63
2022-08-17T10:21:47.865Z,99293.66
2022-08-17T10:26:04.789Z,99300.69
2022-08-17T10:30:09.940Z,99303.00
2022-08-17T10:34:28.691Z,99304.78
2022-08-17T10:38:37.139Z,99323.56
2022-08-17T10:43:10.265Z,99323.22
2022-08-17T10:47:15.728Z,99337.03
2022-08-17T10:51:37.962Z,99336.88
2022-08-17T10:55:41.588Z,99330.19
2022-08-17T10:59:43.106Z,99336.34
2022-08-17T11:03:56.935Z,99349.09
2022-08-17T11:08:05.378Z,99348.44
2022-08-17T11:12:26.654Z,99347.06
2022-08-17T11:16:53.324Z,99332.41
2022-08-17T11:21:20.325Z,99327.31
2022-08-17T11:25:33.105Z,99321.88
2022-08-17T11:29:52.951Z,99326.53
2022-08-17T11:34:04.535Z,99329.44
2022-08-17T11:38:47.286Z,99349.75
2022-08-17T11:43:21.273Z,99337.97
2022-08-17T11:48:25.876Z,99330.16
2022-08-17T11:52:47.485Z,99332.47
2022-08-17T11:56:50.817Z,99340.44
2022-08-17T12:01:29.377Z,99335.44
2022-08-17T12:05:33.357Z,99332.47
2022-08-17T12:09:40.259Z,99338.56
2022-08-17T12:13:50.104Z,99329.59
2022-08-17T12:17:54.042Z,99320.09
2022-08-17T12:21:57.793Z,99307.69
2022-08-17T12:26:07.818Z,99310.19
2022-08-17T12:30:12.526Z,99311.84
2022-08-17T12:34:26.721Z,99323.81
2022-08-17T12:38:33.180Z,99324.81
2022-08-17T12:42:39.443Z,99310.91
2022-08-17T12:47:01.781Z,99308.97
2022-08-17T12:51:07.895Z,99310.41
2022-08-17T12:55:21.223Z,99300.63
2022-08-17T12:59:29.895Z,99298.59
2022-08-17T13:03:39.627Z,99286.94
2022-08-17T13:07:42.648Z,99289.88
2022-08-17T13:11:56.415Z,99288.94
2022-08-17T13:16:01.193Z,99275.72
2022-08-17T13:20:13.380Z,99268.63
2022-08-17T13:24:37.913Z,99258.84
2022-08-17T13:28:47.394Z,99258.22
2022-08-17T13:32:48.989Z,99250.78
2022-08-17T13:37:13.981Z,99253.41
2022-08-17T13:41:36.281Z,99240.69
2022-08-17T13:45:43.527Z,99234.56
2022-08-17T13:49:48.814Z,99233.75
2022-08-17T13:53:58.362Z,99245.16
2022-08-17T13:58:06.634Z,99231.91
2022-08-17T14:02:11.306Z,99225.00
2022-08-17T14:06:12.938Z,99234.78
2022-08-17T14:10:36.487Z,99225.19
2022-08-17T14:14:39.618Z,99209.91
2022-08-17T14:18:56.548Z,99213.00
2022-08-17T14:22:59.044Z,99219.34
2022-08-17T14:27:03.391Z,99208.41
2022-08-17T14:31:07.549Z,99209.34
2022-08-17T14:35:11.252Z,99204.19
2022-08-17T14:39:14.239Z,99198.84
2022-08-17T14:43:15.951Z,99197.56
2022-08-17T14:47:17.477Z,99198.13
2022-08-17T14:51:21.330Z,99189.75
2022-08-17T14:55:22.961Z,99187.78
2022-08-17T14:59:26.367Z,99183.34
2022-08-17T15:03:28.607Z,99182.16
2022-08-17T15:07:30.966Z,99177.72
2022-08-17T15:11:32.915Z,99183.41
2022-08-17T15:15:34.628Z,99191.97
2022-08-17T15:19:36.212Z,99189.09
2022-08-17T15:23:39.807Z,99177.69
2022-08-17T15:27:42.364Z,99182.56
2022-08-17T15:31:43.992Z,99193.09
2022-08-17T15:35:45.795Z,99191.03
2022-08-17T15:39:47.461Z,99186.06
2022-08-17T15:43:52.287Z,99174.28
2022-08-17T15:47:54.314Z,99169.75
2022-08-17T15:51:55.809Z,99169.38
2022-08-17T15:55:57.415Z,99167.38
2022-08-17T15:59:59.313Z,99164.19
2022-08-17T16:04:07.183Z,99162.16
2022-08-17T16:08:23.888Z,99149.97
2022-08-17T16:12:26.376Z,99157.25
2022-08-17T16:16:29.055Z,99151.59
2022-08-17T16:20:31.113Z,99169.94
2022-08-17T16:24:33.233Z,99165.44
2022-08-17T16:28:36.434Z,99163.41
2022-08-17T16:32:38.503Z,99160.06
2022-08-17T16:36:40.288Z,99164.09
2022-08-17T16:40:42.595Z,99161.59
2022-08-17T16:44:44.164Z,99163.56
2022-08-17T16:48:46.507Z,99161.84
2022-08-17T16:52:49.095Z,99164.25
2022-08-17T16:56:51.013Z,99161.38
2022-08-17T17:00:52.652Z,99153.63
2022-08-17T17:05:03.166Z,99145.84
2022-08-17T17:09:12.524Z,99155.09
2022-08-17T17:13:25.244Z,99144.00
2022-08-17T17:17:32.855Z,99133.81
2022-08-17T17:22:07.771Z,99142.66
2022-08-17T17:26:21.154Z,99136.03
2022-08-17T17:30:48.334Z,99144.06
2022-08-17T17:34:56.658Z,99129.69
2022-08-17T17:39:17.412Z,99126.72
2022-08-17T17:43:39.016Z,99128.59
2022-08-17T17:47:42.284Z,99130.50
2022-08-17T17:52:10.156Z,99132.06
2022-08-17T17:56:43.994Z,99135.97
2022-08-17T18:01:09.310Z,99128.59
2022-08-17T18:05:15.434Z,99130.50
2022-08-17T18:09:39.062Z,99128.25
2022-08-17T18:14:07.639Z,99127.75
2022-08-17T18:18:38.077Z,99131.91
2022-08-17T18:22:39.835Z,99140.44
2022-08-17T18:26:43.805Z,99135.25
2022-08-17T18:31:19.256Z,99130.81
2022-08-17T18:35:22.303Z,99116.72
2022-08-17T18:39:28.621Z,99122.88
2022-08-17T18:43:44.147Z,99137.00
2022-08-17T18:47:56.264Z,99139.03
2022-08-17T18:52:23.180Z,99146.69
2022-08-17T18:56:30.650Z,99152.75
2022-08-17T19:00:38.328Z,99149.97
2022-08-17T19:05:09.331Z,99144.34
2022-08-17T19:09:33.843Z,99163.75
2022-08-17T19:13:42.058Z,99173.56
2022-08-17T19:18:00.235Z,99165.59
2022-08-17T19:22:28.962Z,99183.03
2022-08-17T19:26:54.075Z,99189.78
2022-08-17T19:30:59.587Z,99195.66
2022-08-17T19:35:02.181Z,99194.75
2022-08-17T19:39:12.486Z,99182.94
2022-08-17T19:43:21.503Z,99180.38
2022-08-17T19:47:54.689Z,99195.91
2022-08-17T19:52:39.417Z,99185.25
2022-08-17T19:56:47.952Z,99182.59
2022-08-17T20:00:52.122Z,99178.75
2022-08-17T20:04:59.178Z,99176.38
2022-08-17T20:09:15.384Z,99186.72
2022-08-17T20:13:33.006Z,99191.09
2022-08-17T20:17:40.325Z,99196.78
2022-08-17T20:21:49.534Z,99180.97
2022-08-17T20:26:08.111Z,99183.69
2022-08-17T20:30:13.219Z,99183.19
2022-08-17T20:34:46.486Z,99195.28
2022-08-17T20:38:56.792Z,99190.13
2022-08-17T20:42:59.728Z,99196.69
2022-08-17T20:47:07.224Z,99196.44
2022-08-17T20:51:27.171Z,99188.94
2022-08-17T20:55:51.534Z,99191.97
2022-08-17T20:59:55.300Z,99193.47
2022-08-17T21:03:57.190Z,99191.72
2022-08-17T21:08:13.150Z,99206.13
2022-08-17T21:12:39.371Z,99199.56
2022-08-17T21:17:15.431Z,99206.22
2022-08-17T21:21:19.850Z,99218.81
2022-08-17T21:25:25.437Z,99212.25
2022-08-17T21:29:33.767Z,99212.56
2022-08-17T21:33:39.620Z,99221.38
2022-08-17T21:37:50.542Z,99231.78
2022-08-17T21:41:56.788Z,99241.38
2022-08-17T21:46:08.981Z,99242.91
2022-08-17T21:50:18.709Z,99233.88
2022-08-17T21:54:38.738Z,99250.56
2022-08-17T21:58:45.439Z,99262.84
2022-08-17T22:03:01.057Z,99255.91
2022-08-17T22:07:09.321Z,99251.00
2022-08-17T22:11:10.909Z,99248.19
2022-08-17T22:15:17.739Z,99242.25
2022-08-17T22:19:21.128Z,99239.88
2022-08-17T22:23:51.315Z,99232.78
2022-08-17T22:28:00.317Z,99235.69
2022-08-17T22:32:01.887Z,99246.59
2022-08-17T22:36:28.915Z,99244.94
2022-08-17T22:40:33.682Z,99246.94
2022-08-17T22:44:44.868Z,99248.09
2022-08-17T22:48:50.301Z,99264.97
2022-08-17T22:53:22.864Z,99267.78
2022-08-17T22:57:43.600Z,99265.28
2022-08-17T23:02:13.700Z,99268.94
2022-08-17T23:06:15.293Z,99275.38
2022-08-17T23:10:16.860Z,99290.09
2022-08-17T23:14:21.461Z,99286.31
2022-08-17T23:18:23.540Z,99293.31
2022-08-17T23:22:25.217Z,99294.69
2022-08-17T23:26:27.837Z,99294.41
2022-08-17T23:30:32.494Z,99290.16
2022-08-17T23:34:34.169Z,99292.03
2022-08-17T23:38:36.260Z,99291.75
2022-08-17T23:42:43.389Z,99291.47
2022-08-17T23:46:48.043Z,99289.19
2022-08-17T23:50:52.908Z,99287.72
2022-08-17T23:54:54.532Z,99295.88
2022-08-17T23:58:56.148Z,99302.81
